createdAt,value
2022-11-27T00:01:32.677Z,9.90
2022-11-27T00:04:00.775Z,10.13
2022-11-27T00:06:31.067Z,10.97
2022-11-27T00:09:00.622Z,10.13
2022-11-27T00:11:30.827Z,11.37
2022-11-27T00:14:00.717Z,11.53
2022-11-27T00:16:30.686Z,10.97
2022-11-27T00:18:58.948Z,8.80
2022-11-27T00:21:30.362Z,9.10
2022-11-27T00:24:02.109Z,9.30
2022-11-27T00:26:37.523Z,9.57
2022-11-27T00:29:08.837Z,10.80
2022-11-27T00:31:38.245Z,8.93
2022-11-27T00:34:09.204Z,9.60
2022-11-27T00:36:38.263Z,9.40
2022-11-27T00:39:07.234Z,10.27
2022-11-27T00:41:35.870Z,10.67
2022-11-27T00:44:04.428Z,9.83
2022-11-27T00:46:35.592Z,9.43
2022-11-27T00:49:06.479Z,11.63
2022-11-27T00:51:34.797Z,10.57
2022-11-27T00:54:02.794Z,9.83
2022-11-27T00:56:33.044Z,10.83
2022-11-27T00:59:01.111Z,9.23
2022-11-27T01:01:34.462Z,9.30
2022-11-27T01:04:05.201Z,10.07
2022-11-27T01:06:33.541Z,10.60
2022-11-27T01:09:01.892Z,8.37
2022-11-27T01:11:33.046Z,8.13
2022-11-27T01:14:03.499Z,7.80
2022-11-27T01:16:34.293Z,9.50
2022-11-27T01:19:03.723Z,7.93
2022-11-27T01:21:35.448Z,8.20
2022-11-27T01:24:05.695Z,8.10
2022-11-27T01:26:34.137Z,8.53
2022-11-27T01:29:02.453Z,9.20
2022-11-27T01:31:34.548Z,8.00
2022-11-27T01:34:05.331Z,9.60
2022-11-27T01:36:35.374Z,9.27
2022-11-27T01:39:04.902Z,7.43
2022-11-27T01:41:36.113Z,8.00
2022-11-27T01:44:43.809Z,8.00
2022-11-27T01:47:19.122Z,8.87
2022-11-27T01:49:51.976Z,8.47
2022-11-27T01:52:23.553Z,7.60
2022-11-27T01:54:56.883Z,8.00
2022-11-27T01:57:28.545Z,7.57
2022-11-27T01:59:59.825Z,7.47
2022-11-27T02:02:29.437Z,7.60
2022-11-27T02:04:57.541Z,7.23
2022-11-27T02:07:25.866Z,7.90
2022-11-27T02:09:54.032Z,7.10
2022-11-27T02:12:26.419Z,6.33
2022-11-27T02:15:08.083Z,7.43
2022-11-27T02:17:46.831Z,7.13
2022-11-27T02:20:30.264Z,8.07
2022-11-27T02:23:36.135Z,6.90
2022-11-27T02:26:40.093Z,7.00
2022-11-27T02:29:11.937Z,7.43
2022-11-27T02:31:44.269Z,7.70
2022-11-27T02:34:30.054Z,7.03
2022-11-27T02:37:04.628Z,6.50
2022-11-27T02:39:41.666Z,6.13
2022-11-27T02:42:15.477Z,7.53
2022-11-27T02:44:50.667Z,5.70
2022-11-27T02:47:19.786Z,6.40
2022-11-27T02:49:49.139Z,6.13
2022-11-27T02:52:19.160Z,6.27
2022-11-27T02:54:49.291Z,6.57
2022-11-27T02:57:18.664Z,4.93
2022-11-27T02:59:49.011Z,7.00
2022-11-27T03:02:24.646Z,5.63
2022-11-27T03:04:57.842Z,5.10
2022-11-27T03:07:34.437Z,6.00
2022-11-27T03:10:10.121Z,5.20
2022-11-27T03:12:38.559Z,6.00
2022-11-27T03:15:12.152Z,6.60
2022-11-27T03:17:54.163Z,6.80
2022-11-27T03:20:26.779Z,7.60
2022-11-27T03:22:55.902Z,6.43
2022-11-27T03:25:24.862Z,5.20
2022-11-27T03:27:58.448Z,5.13
2022-11-27T03:30:27.984Z,6.40
2022-11-27T03:32:56.252Z,5.53
2022-11-27T03:35:27.794Z,6.53
2022-11-27T03:37:56.653Z,4.47
2022-11-27T03:40:31.249Z,6.23
2022-11-27T03:43:05.565Z,5.80
2022-11-27T03:45:41.861Z,6.40
2022-11-27T03:48:24.000Z,7.63
2022-11-27T03:51:06.238Z,6.30
2022-11-27T03:53:45.604Z,7.57
2022-11-27T03:56:19.907Z,9.20
2022-11-27T03:58:55.451Z,7.37
2022-11-27T04:01:27.581Z,9.27
2022-11-27T04:03:55.668Z,8.50
2022-11-27T04:06:23.741Z,9.20
2022-11-27T04:08:51.711Z,8.30
2022-11-27T04:11:19.740Z,9.40
2022-11-27T04:13:47.751Z,8.97
2022-11-27T04:16:15.813Z,8.60
2022-11-27T04:18:45.195Z,9.17
2022-11-27T04:21:13.345Z,9.37
2022-11-27T04:23:41.610Z,7.57
2022-11-27T04:26:09.722Z,7.80
2022-11-27T04:28:37.933Z,7.80
2022-11-27T04:31:06.454Z,8.27
2022-11-27T04:33:34.592Z,7.80
2022-11-27T04:36:04.055Z,7.67
2022-11-27T04:38:32.070Z,8.40
2022-11-27T04:41:00.112Z,7.77
2022-11-27T04:43:28.826Z,8.87
2022-11-27T04:45:56.796Z,8.03
2022-11-27T04:48:24.807Z,8.93
2022-11-27T04:50:52.853Z,7.67
2022-11-27T04:53:22.201Z,8.33
2022-11-27T04:55:51.975Z,8.30
2022-11-27T04:58:19.941Z,8.27
2022-11-27T05:00:47.986Z,6.73
2022-11-27T05:03:16.053Z,8.47
2022-11-27T05:05:44.168Z,8.03
2022-11-27T05:08:12.162Z,7.90
2022-11-27T05:10:41.632Z,7.83
2022-11-27T05:13:09.663Z,6.57
2022-11-27T05:15:37.632Z,7.10
2022-11-27T05:18:05.866Z,7.93
2022-11-27T05:20:33.818Z,7.67
2022-11-27T05:23:01.746Z,7.43
2022-11-27T05:25:29.714Z,7.50
2022-11-27T05:27:59.226Z,7.97
2022-11-27T05:30:27.246Z,7.10
2022-11-27T05:32:55.200Z,7.47
2022-11-27T05:35:23.168Z,8.70
2022-11-27T05:37:51.141Z,8.20
2022-11-27T05:40:19.272Z,9.00
2022-11-27T05:42:47.237Z,8.83
2022-11-27T05:45:16.812Z,8.30
2022-11-27T05:47:44.840Z,8.47
2022-11-27T05:50:13.029Z,9.00
2022-11-27T05:52:40.985Z,9.67
2022-11-27T05:55:10.172Z,8.90
2022-11-27T05:57:38.185Z,9.03
2022-11-27T06:00:08.621Z,9.10
2022-11-27T06:02:38.050Z,8.77
2022-11-27T06:05:07.227Z,9.53
2022-11-27T06:07:35.305Z,8.60
2022-11-27T06:10:03.816Z,9.67
2022-11-27T06:12:32.907Z,9.83
2022-11-27T06:15:00.950Z,9.20
2022-11-27T06:17:28.990Z,10.60
2022-11-27T06:19:58.344Z,10.57
2022-11-27T06:22:26.357Z,10.07
2022-11-27T06:24:54.333Z,8.77
2022-11-27T06:27:22.355Z,8.43
2022-11-27T06:29:50.340Z,9.40
2022-11-27T06:32:18.332Z,9.10
2022-11-27T06:34:46.310Z,10.40
2022-11-27T06:37:15.622Z,9.93
2022-11-27T06:39:43.704Z,9.43
2022-11-27T06:42:12.853Z,10.57
2022-11-27T06:44:41.318Z,9.20
2022-11-27T06:47:09.663Z,9.80
2022-11-27T06:49:37.757Z,11.33
2022-11-27T06:52:06.570Z,9.53
2022-11-27T06:54:35.931Z,9.93
2022-11-27T06:57:03.951Z,10.50
2022-11-27T06:59:32.055Z,10.53
2022-11-27T07:02:00.114Z,9.73
2022-11-27T07:04:28.206Z,10.30
2022-11-27T07:06:56.229Z,9.53
2022-11-27T07:09:24.230Z,10.87
2022-11-27T07:11:53.544Z,9.37
2022-11-27T07:14:21.560Z,10.70
2022-11-27T07:16:49.646Z,11.27
2022-11-27T07:19:17.715Z,12.03
2022-11-27T07:21:45.719Z,10.37
2022-11-27T07:24:13.725Z,10.10
2022-11-27T07:26:41.721Z,10.87
2022-11-27T07:29:11.562Z,10.67
2022-11-27T07:31:39.708Z,12.10
2022-11-27T07:34:14.119Z,10.30
2022-11-27T07:36:44.126Z,10.77
2022-11-27T07:39:12.171Z,11.63
2022-11-27T07:41:40.174Z,10.60
2022-11-27T07:44:08.182Z,10.50
2022-11-27T07:46:37.499Z,11.13
2022-11-27T07:49:05.455Z,10.83
2022-11-27T07:51:33.420Z,11.00
2022-11-27T07:54:01.623Z,12.07
2022-11-27T07:56:30.385Z,10.50
2022-11-27T07:58:59.563Z,10.80
2022-11-27T08:01:27.824Z,12.80
2022-11-27T08:03:57.402Z,11.93
2022-11-27T08:06:27.701Z,13.10
2022-11-27T08:08:56.764Z,12.90
2022-11-27T08:11:27.079Z,13.87
2022-11-27T08:13:58.498Z,13.50
2022-11-27T08:16:27.088Z,12.70
2022-11-27T08:18:59.771Z,12.10
2022-11-27T08:21:30.850Z,14.13
2022-11-27T08:23:59.412Z,14.73
2022-11-27T08:26:28.664Z,12.40
2022-11-27T08:28:57.541Z,12.17
2022-11-27T08:31:26.031Z,12.00
2022-11-27T08:33:54.091Z,12.43
2022-11-27T08:36:26.505Z,12.47
2022-11-27T08:38:54.956Z,15.40
2022-11-27T08:41:23.359Z,13.13
2022-11-27T08:43:53.680Z,12.40
2022-11-27T08:46:21.957Z,10.10
2022-11-27T08:48:50.025Z,13.50
2022-11-27T08:51:18.043Z,14.17
2022-11-27T08:53:47.635Z,12.73
2022-11-27T08:56:19.270Z,11.87
2022-11-27T08:58:47.815Z,11.47
2022-11-27T09:01:19.177Z,11.20
2022-11-27T09:03:47.684Z,12.90
2022-11-27T09:06:19.813Z,11.47
2022-11-27T09:08:50.436Z,13.23
2022-11-27T09:11:20.938Z,14.20
2022-11-27T09:13:49.166Z,13.07
2022-11-27T09:16:20.001Z,15.27
2022-11-27T09:18:50.354Z,14.80
2022-11-27T09:21:21.115Z,14.50
2022-11-27T09:23:54.927Z,15.93
2022-11-27T09:26:25.458Z,12.87
2022-11-27T09:28:54.286Z,15.97
2022-11-27T09:31:23.907Z,17.63
2022-11-27T09:33:51.918Z,16.70
2022-11-27T09:36:22.734Z,15.87
2022-11-27T09:38:52.658Z,16.67
2022-11-27T09:41:50.617Z,15.60
2022-11-27T09:44:28.551Z,15.80
2022-11-27T09:46:59.566Z,18.90
2022-11-27T09:49:34.672Z,17.17
2022-11-27T09:52:07.482Z,16.63
2022-11-27T09:54:41.867Z,15.63
2022-11-27T09:57:17.390Z,15.60
2022-11-27T09:59:51.245Z,14.27
2022-11-27T10:02:26.435Z,14.17
2022-11-27T10:08:12.895Z,13.67
2022-11-27T10:10:54.874Z,13.30
2022-11-27T10:13:44.504Z,14.47
2022-11-27T10:16:24.249Z,13.93
2022-11-27T10:18:56.405Z,14.47
2022-11-27T10:21:35.816Z,14.50
2022-11-27T10:24:15.127Z,12.97
2022-11-27T10:26:48.719Z,13.90
2022-11-27T10:29:35.250Z,13.20
2022-11-27T10:32:33.011Z,15.10
2022-11-27T10:35:04.639Z,12.70
2022-11-27T10:37:41.524Z,13.17
2022-11-27T10:40:22.233Z,15.00
2022-11-27T10:42:59.315Z,12.70
2022-11-27T10:45:39.678Z,13.30
2022-11-27T10:48:11.857Z,12.70
2022-11-27T10:50:47.219Z,11.93
2022-11-27T10:53:25.739Z,12.40
2022-11-27T10:56:22.738Z,13.83
2022-11-27T10:58:59.362Z,12.97
2022-11-27T11:01:30.607Z,13.53
2022-11-27T11:04:31.218Z,12.23
2022-11-27T11:06:56.156Z,13.67
2022-11-27T11:09:27.345Z,11.87
2022-11-27T11:11:55.483Z,11.90
2022-11-27T11:14:27.073Z,12.47
2022-11-27T11:16:55.962Z,11.43
2022-11-27T11:19:29.766Z,10.70
2022-11-27T11:22:00.617Z,12.90
2022-11-27T11:24:31.058Z,10.67
2022-11-27T11:27:01.949Z,10.97
2022-11-27T11:29:36.471Z,11.77
2022-11-27T11:32:10.435Z,9.87
2022-11-27T11:34:44.548Z,11.03
2022-11-27T11:37:25.069Z,12.50
2022-11-27T11:40:00.029Z,12.10
2022-11-27T11:42:31.665Z,12.23
2022-11-27T11:45:08.336Z,9.97
2022-11-27T11:47:39.697Z,10.23
2022-11-27T11:50:13.351Z,11.53
2022-11-27T11:52:56.050Z,10.03
2022-11-27T11:55:32.490Z,11.00
2022-11-27T11:58:22.504Z,11.20
2022-11-27T12:01:26.042Z,11.23
2022-11-27T12:04:08.917Z,11.43
2022-11-27T12:06:56.102Z,10.20
2022-11-27T12:09:37.817Z,9.70
2022-11-27T12:12:18.702Z,8.93
2022-11-27T12:14:52.269Z,11.13
2022-11-27T12:17:36.854Z,10.30
2022-11-27T12:20:19.710Z,10.13
2022-11-27T12:23:51.323Z,9.37
2022-11-27T12:26:30.624Z,8.20
2022-11-27T12:29:18.225Z,8.43
2022-11-27T12:32:05.478Z,8.73
2022-11-27T12:34:47.722Z,10.07
2022-11-27T12:37:36.323Z,8.97
2022-11-27T12:40:42.334Z,9.57
2022-11-27T12:43:24.629Z,11.63
2022-11-27T12:46:00.337Z,10.23
2022-11-27T12:48:34.528Z,10.37
2022-11-27T12:51:09.377Z,10.53
2022-11-27T12:53:40.780Z,10.00
2022-11-27T12:56:15.918Z,8.97
2022-11-27T12:58:49.827Z,8.63
2022-11-27T13:01:26.815Z,8.90
2022-11-27T13:04:07.407Z,8.87
2022-11-27T13:06:50.215Z,8.50
2022-11-27T13:09:27.501Z,9.53
2022-11-27T13:11:56.611Z,10.70
2022-11-27T13:14:27.906Z,10.40
2022-11-27T13:17:02.017Z,8.77
2022-11-27T13:19:35.348Z,9.73
2022-11-27T13:22:10.413Z,9.53
2022-11-27T13:24:39.144Z,11.10
2022-11-27T13:27:10.926Z,9.70
2022-11-27T13:29:44.142Z,9.50
2022-11-27T13:32:23.915Z,8.90
2022-11-27T13:34:55.833Z,9.50
2022-11-27T13:37:31.011Z,9.17
2022-11-27T13:40:06.344Z,8.80
2022-11-27T13:42:37.187Z,8.83
2022-11-27T13:45:10.963Z,9.70
2022-11-27T13:47:42.492Z,9.57
2022-11-27T13:50:14.054Z,10.30
2022-11-27T13:52:57.214Z,9.33
2022-11-27T13:55:28.738Z,9.00
2022-11-27T13:57:59.464Z,9.53
2022-11-27T14:00:37.811Z,9.43
2022-11-27T14:03:09.657Z,10.83
2022-11-27T14:05:42.812Z,9.33
2022-11-27T14:08:25.462Z,9.70
2022-11-27T14:10:59.849Z,9.90
2022-11-27T14:13:44.433Z,8.53
2022-11-27T14:16:26.329Z,9.20
2022-11-27T14:18:58.243Z,9.30
2022-11-27T14:21:35.793Z,9.60
2022-11-27T14:24:10.778Z,10.20
2022-11-27T14:26:42.641Z,9.43
2022-11-27T14:29:13.203Z,10.70
2022-11-27T14:31:41.275Z,10.57
2022-11-27T14:34:30.494Z,9.93
2022-11-27T14:36:59.802Z,10.63
2022-11-27T14:39:31.551Z,9.20
2022-11-27T14:42:01.782Z,10.00
2022-11-27T14:44:30.820Z,10.60
2022-11-27T14:47:02.944Z,10.23
2022-11-27T14:49:33.044Z,9.07
2022-11-27T14:52:05.397Z,9.37
2022-11-27T14:54:38.405Z,9.33
2022-11-27T14:57:07.572Z,9.73
2022-11-27T14:59:35.704Z,8.70
2022-11-27T15:02:17.282Z,7.53
2022-11-27T15:04:47.503Z,9.50
2022-11-27T15:07:20.186Z,9.17
2022-11-27T15:09:53.981Z,8.20
2022-11-27T15:12:26.007Z,8.30
2022-11-27T15:14:59.977Z,8.13
2022-11-27T15:17:31.885Z,8.60
2022-11-27T15:20:01.645Z,7.73
2022-11-27T15:22:29.827Z,7.67
2022-11-27T15:25:04.914Z,7.93
2022-11-27T15:27:33.981Z,7.37
2022-11-27T15:30:13.301Z,8.10
2022-11-27T15:32:52.257Z,8.00
2022-11-27T15:35:27.831Z,7.97
2022-11-27T15:37:58.181Z,6.93
2022-11-27T15:40:33.508Z,7.10
2022-11-27T15:43:01.513Z,8.57
2022-11-27T15:45:31.828Z,7.50
2022-11-27T15:48:01.750Z,8.37
2022-11-27T15:50:31.036Z,7.97
2022-11-27T15:53:00.873Z,7.60
2022-11-27T15:55:30.699Z,8.67
2022-11-27T15:57:58.715Z,12.27
2022-11-27T16:00:27.302Z,8.30
2022-11-27T16:02:55.758Z,8.57
2022-11-27T16:05:23.800Z,7.70
2022-11-27T16:07:55.118Z,7.30
2022-11-27T16:10:23.737Z,6.87
2022-11-27T16:12:55.124Z,5.80
2022-11-27T16:15:25.790Z,6.70
2022-11-27T16:17:56.799Z,6.77
2022-11-27T16:20:24.916Z,6.80
2022-11-27T16:22:53.203Z,8.10
2022-11-27T16:25:21.753Z,8.20
2022-11-27T16:27:50.283Z,6.20
2022-11-27T16:30:20.633Z,6.13
2022-11-27T16:32:48.678Z,6.00
2022-11-27T16:35:16.861Z,6.10
2022-11-27T16:37:46.289Z,6.67
2022-11-27T16:40:15.547Z,7.10
2022-11-27T16:42:43.680Z,6.57
2022-11-27T16:45:12.248Z,5.87
2022-11-27T16:47:44.181Z,5.83
2022-11-27T16:50:13.856Z,6.57
2022-11-27T16:52:41.844Z,5.40
2022-11-27T16:55:10.635Z,5.73
2022-11-27T16:57:38.604Z,5.93
2022-11-27T17:00:08.730Z,6.50
2022-11-27T17:02:36.823Z,7.13
2022-11-27T17:05:07.199Z,13.10
2022-11-27T17:07:35.681Z,8.03
2022-11-27T17:10:04.074Z,6.23
2022-11-27T17:12:34.269Z,8.70
2022-11-27T17:15:02.319Z,5.57
2022-11-27T17:17:32.247Z,7.47
2022-11-27T17:20:06.304Z,5.50
2022-11-27T17:22:34.395Z,6.50
2022-11-27T17:25:02.863Z,6.50
2022-11-27T17:27:30.891Z,6.87
2022-11-27T17:29:58.975Z,6.40
2022-11-27T17:32:27.079Z,6.07
2022-11-27T17:34:55.104Z,5.00
2022-11-27T17:37:24.642Z,5.63
2022-11-27T17:39:52.925Z,5.47
2022-11-27T17:42:22.824Z,5.20
2022-11-27T17:44:51.531Z,5.33
2022-11-27T17:47:19.543Z,5.53
2022-11-27T17:49:47.528Z,5.43
2022-11-27T17:52:15.568Z,5.67
2022-11-27T17:54:44.955Z,5.03
2022-11-27T17:57:12.970Z,6.13
2022-11-27T17:59:41.211Z,6.43
2022-11-27T18:02:12.520Z,5.03
2022-11-27T18:04:40.757Z,5.33
2022-11-27T18:07:08.776Z,6.17
2022-11-27T18:09:36.973Z,4.53
2022-11-27T18:12:07.694Z,5.07
2022-11-27T18:14:36.091Z,4.50
2022-11-27T18:17:07.000Z,6.23
2022-11-27T18:19:36.525Z,5.50
2022-11-27T18:22:04.573Z,6.60
2022-11-27T18:24:32.650Z,4.70
2022-11-27T18:27:08.105Z,6.77
2022-11-27T18:29:39.320Z,5.13
2022-11-27T18:32:08.114Z,4.97
2022-11-27T18:34:36.293Z,4.03
2022-11-27T18:37:10.186Z,5.27
2022-11-27T18:39:40.424Z,5.43
2022-11-27T18:42:08.995Z,5.07
2022-11-27T18:44:44.385Z,6.67
2022-11-27T18:47:13.620Z,6.57
2022-11-27T18:49:42.733Z,6.27
2022-11-27T18:52:11.665Z,5.27
2022-11-27T18:54:39.707Z,5.90
2022-11-27T18:57:07.709Z,6.90
2022-11-27T18:59:35.870Z,5.93
2022-11-27T19:02:05.972Z,6.50
2022-11-27T19:04:37.372Z,7.43
2022-11-27T19:07:05.456Z,7.43
2022-11-27T19:09:34.004Z,8.40
2022-11-27T19:12:01.992Z,8.33
2022-11-27T19:14:30.935Z,8.33
2022-11-27T19:16:59.299Z,8.17
2022-11-27T19:22:20.526Z,7.60
2022-11-27T19:24:48.714Z,5.77
2022-11-27T19:27:16.751Z,7.70
2022-11-27T19:29:44.783Z,7.13
2022-11-27T19:32:12.887Z,7.47
2022-11-27T19:34:42.592Z,7.90
2022-11-27T19:37:10.852Z,7.93
2022-11-27T19:39:38.899Z,7.10
2022-11-27T19:42:07.160Z,6.40
2022-11-27T19:44:35.488Z,6.70
2022-11-27T19:47:03.472Z,6.80
2022-11-27T19:49:31.637Z,8.57
2022-11-27T19:52:01.544Z,7.70
2022-11-27T19:54:29.538Z,7.43
2022-11-27T19:56:57.643Z,7.37
2022-11-27T19:59:26.319Z,6.37
2022-11-27T20:01:54.442Z,6.10
2022-11-27T20:04:22.619Z,6.23
2022-11-27T20:06:53.329Z,7.30
2022-11-27T20:09:22.766Z,6.50
2022-11-27T20:11:50.882Z,6.67
2022-11-27T20:14:19.441Z,7.33
2022-11-27T20:16:47.725Z,7.77
2022-11-27T20:19:15.946Z,7.13
2022-11-27T20:21:44.098Z,6.97
2022-11-27T20:24:12.739Z,6.13
2022-11-27T20:26:43.049Z,6.50
2022-11-27T20:29:12.323Z,6.57
2022-11-27T20:31:44.400Z,6.07
2022-11-27T20:34:19.576Z,6.20
2022-11-27T20:36:48.192Z,6.63
2022-11-27T20:39:20.935Z,5.70
2022-11-27T20:41:53.337Z,5.13
2022-11-27T20:44:23.419Z,6.37
2022-11-27T20:46:52.195Z,5.10
2022-11-27T20:49:20.680Z,5.10
2022-11-27T20:51:50.430Z,6.00
2022-11-27T20:54:18.860Z,7.17
2022-11-27T20:56:47.560Z,5.80
2022-11-27T20:59:16.992Z,5.70
2022-11-27T21:01:45.062Z,5.00
2022-11-27T21:04:22.142Z,6.40
2022-11-27T21:06:50.208Z,6.07
2022-11-27T21:09:19.118Z,5.53
2022-11-27T21:11:48.308Z,6.30
2022-11-27T21:14:18.335Z,6.07
2022-11-27T21:16:49.685Z,5.60
2022-11-27T21:19:20.738Z,5.80
2022-11-27T21:21:49.442Z,5.87
2022-11-27T21:24:17.915Z,5.20
2022-11-27T21:26:49.251Z,5.70
2022-11-27T21:29:24.619Z,5.23
2022-11-27T21:31:53.837Z,5.57
2022-11-27T21:34:21.990Z,5.70
2022-11-27T21:36:50.278Z,6.93
2022-11-27T21:39:20.625Z,8.10
2022-11-27T21:41:50.418Z,5.33
2022-11-27T21:44:20.329Z,4.73
2022-11-27T21:46:49.469Z,5.70
2022-11-27T21:49:19.780Z,5.70
2022-11-27T21:51:51.641Z,5.20
2022-11-27T21:54:20.102Z,6.30
2022-11-27T21:56:51.589Z,5.80
2022-11-27T21:59:20.999Z,4.80
2022-11-27T22:01:49.143Z,6.20
2022-11-27T22:04:17.767Z,5.53
2022-11-27T22:06:46.175Z,6.30
2022-11-27T22:09:16.048Z,4.70
2022-11-27T22:11:45.773Z,5.13
2022-11-27T22:14:15.829Z,4.20
2022-11-27T22:16:47.146Z,5.47
2022-11-27T22:19:16.492Z,4.73
2022-11-27T22:21:45.840Z,5.70
2022-11-27T22:24:18.931Z,5.87
2022-11-27T22:26:48.575Z,4.80
2022-11-27T22:29:16.743Z,5.30
2022-11-27T22:31:46.421Z,5.43
2022-11-27T22:34:14.418Z,4.43
2022-11-27T22:36:42.605Z,5.80
2022-11-27T22:39:10.904Z,5.47
2022-11-27T22:41:40.685Z,6.20
2022-11-27T22:44:10.135Z,5.50
2022-11-27T22:46:42.841Z,5.37
2022-11-27T22:49:15.182Z,5.67
2022-11-27T22:51:43.359Z,5.53
2022-11-27T22:54:15.073Z,7.03
2022-11-27T22:56:45.301Z,5.00
2022-11-27T23:02:02.889Z,5.97
2022-11-27T23:04:32.483Z,4.90
2022-11-27T23:07:00.753Z,5.70
2022-11-27T23:09:29.038Z,5.73
2022-11-27T23:11:57.391Z,5.70
2022-11-27T23:14:25.950Z,6.10
2022-11-27T23:16:54.052Z,6.00
2022-11-27T23:19:22.260Z,4.23
2022-11-27T23:21:51.639Z,5.40
2022-11-27T23:24:19.949Z,5.00
2022-11-27T23:26:47.969Z,5.83
2022-11-27T23:29:16.001Z,5.30
2022-11-27T23:31:44.298Z,5.57
2022-11-27T23:34:15.812Z,5.43
2022-11-27T23:36:44.110Z,5.17
2022-11-27T23:39:14.616Z,4.60
2022-11-27T23:41:43.513Z,5.23
2022-11-27T23:44:12.027Z,4.80
2022-11-27T23:46:40.507Z,5.13
2022-11-27T23:49:08.641Z,5.10
2022-11-27T23:51:36.701Z,3.90
2022-11-27T23:54:10.019Z,4.70
2022-11-27T23:56:40.736Z,4.30
2022-11-27T23:59:08.766Z,5.17
